createdAt,value
2023-03-24T00:00:11.397Z,1.00
2023-03-24T00:02:41.673Z,1.60
2023-03-24T00:05:10.936Z,1.80
2023-03-24T00:07:41.257Z,1.90
2023-03-24T00:10:10.770Z,2.30
2023-03-24T00:12:38.964Z,3.30
2023-03-24T00:15:08.404Z,3.70
2023-03-24T00:17:36.730Z,3.50
2023-03-24T00:20:14.860Z,17.10
2023-03-24T00:22:48.443Z,4.10
2023-03-24T00:25:17.327Z,5.10
2023-03-24T00:27:45.014Z,5.00
2023-03-24T00:30:12.837Z,5.90
2023-03-24T00:32:40.582Z,5.80
2023-03-24T00:35:09.297Z,5.90
2023-03-24T00:37:39.890Z,6.20
2023-03-24T00:40:12.902Z,7.40
2023-03-24T00:42:46.022Z,6.80
2023-03-24T00:45:19.947Z,7.40
2023-03-24T00:47:50.116Z,7.50
2023-03-24T00:50:20.693Z,7.60
2023-03-24T00:52:49.206Z,8.10
2023-03-24T00:55:16.909Z,8.20
2023-03-24T00:57:50.306Z,8.50
2023-03-24T01:00:21.196Z,8.90
2023-03-24T01:02:53.738Z,8.70
2023-03-24T01:05:22.942Z,9.60
2023-03-24T01:07:52.095Z,9.70
2023-03-24T01:10:21.824Z,9.80
2023-03-24T01:12:49.077Z,10.10
2023-03-24T01:15:18.501Z,10.30
2023-03-24T01:17:47.300Z,10.70
2023-03-24T01:20:14.922Z,11.30
2023-03-24T01:22:45.087Z,11.10
2023-03-24T01:25:17.851Z,11.70
2023-03-24T01:27:49.873Z,11.30
2023-03-24T01:30:19.699Z,11.40
2023-03-24T01:32:46.615Z,11.80
2023-03-24T01:35:14.008Z,11.30
2023-03-24T01:37:41.304Z,11.50
2023-03-24T01:40:10.119Z,11.80
2023-03-24T01:42:39.137Z,12.30
2023-03-24T01:45:34.154Z,13.10
2023-03-24T01:48:01.271Z,13.10
2023-03-24T01:50:28.518Z,13.00
2023-03-24T01:52:56.063Z,13.70
2023-03-24T01:55:23.759Z,13.70
2023-03-24T01:57:56.318Z,13.90
2023-03-24T02:00:23.218Z,14.90
2023-03-24T02:02:58.920Z,14.10
2023-03-24T02:05:30.375Z,15.10
2023-03-24T02:08:18.468Z,14.60
2023-03-24T02:10:46.285Z,15.30
2023-03-24T02:13:13.663Z,15.30
2023-03-24T02:16:08.135Z,15.60
2023-03-24T02:19:15.022Z,16.20
2023-03-24T02:22:00.584Z,16.70
2023-03-24T02:24:36.594Z,17.10
2023-03-24T02:27:33.830Z,16.60
2023-03-24T02:30:30.919Z,18.10
2023-03-24T02:33:22.898Z,17.40
2023-03-24T02:36:15.476Z,17.40
2023-03-24T02:39:19.882Z,18.00
2023-03-24T02:42:22.190Z,18.20
2023-03-24T02:45:05.580Z,18.40
2023-03-24T02:48:01.434Z,18.40
2023-03-24T02:50:37.643Z,18.70
2023-03-24T02:53:17.038Z,18.90
2023-03-24T02:55:46.337Z,19.00
2023-03-24T02:58:42.184Z,20.00
2023-03-24T03:01:14.373Z,20.00
2023-03-24T03:03:48.462Z,19.60
2023-03-24T03:06:23.614Z,20.00
2023-03-24T03:08:51.592Z,19.40
2023-03-24T03:11:19.094Z,20.50
2023-03-24T03:14:02.902Z,19.60
2023-03-24T03:16:38.450Z,20.10
2023-03-24T03:19:14.135Z,20.60
2023-03-24T03:21:44.204Z,20.50
2023-03-24T03:24:17.918Z,21.40
2023-03-24T03:26:49.030Z,20.80
2023-03-24T03:29:24.157Z,20.90
2023-03-24T03:32:01.059Z,21.30
2023-03-24T03:34:48.567Z,21.60
2023-03-24T03:37:44.849Z,22.10
2023-03-24T03:40:32.934Z,22.30
2023-03-24T03:42:59.855Z,22.50
2023-03-24T03:45:27.001Z,21.70
2023-03-24T03:47:54.440Z,21.70
2023-03-24T03:50:21.921Z,22.50
2023-03-24T03:52:49.529Z,22.00
2023-03-24T03:55:17.059Z,22.40
2023-03-24T03:57:44.278Z,22.40
2023-03-24T04:00:20.031Z,22.60
2023-03-24T04:02:58.185Z,23.40
2023-03-24T04:05:33.417Z,23.60
2023-03-24T04:08:16.994Z,23.70
2023-03-24T04:11:05.776Z,23.90
2023-03-24T04:14:03.750Z,24.60
2023-03-24T04:16:53.017Z,24.50
2023-03-24T04:19:39.678Z,24.30
2023-03-24T04:22:32.889Z,24.40
2023-03-24T04:25:08.971Z,24.70
2023-03-24T04:27:46.650Z,24.70
2023-03-24T04:30:16.533Z,24.60
2023-03-24T04:32:49.752Z,24.90
2023-03-24T04:35:45.178Z,25.20
2023-03-24T04:38:27.856Z,26.10
2023-03-24T04:40:56.535Z,25.80
2023-03-24T04:43:28.979Z,25.80
2023-03-24T04:45:58.066Z,25.90
2023-03-24T04:48:26.248Z,25.90
2023-03-24T04:50:58.871Z,25.60
2023-03-24T04:53:26.074Z,26.10
2023-03-24T04:56:00.750Z,26.60
2023-03-24T04:58:27.606Z,26.60
2023-03-24T05:00:56.631Z,26.50
2023-03-24T05:03:23.576Z,26.50
2023-03-24T05:05:52.330Z,27.30
2023-03-24T05:08:20.648Z,26.80
2023-03-24T05:10:47.761Z,27.00
2023-03-24T05:13:15.863Z,26.90
2023-03-24T05:15:43.212Z,27.40
2023-03-24T05:18:10.569Z,27.40
2023-03-24T05:20:37.527Z,26.70
2023-03-24T05:23:04.326Z,27.40
2023-03-24T05:25:31.273Z,27.40
2023-03-24T05:27:58.176Z,27.50
2023-03-24T05:30:25.074Z,27.60
2023-03-24T05:32:52.118Z,27.50
2023-03-24T05:35:19.261Z,28.30
2023-03-24T05:37:46.102Z,27.70
2023-03-24T05:40:13.524Z,28.20
2023-03-24T05:42:40.536Z,28.20
2023-03-24T05:45:08.161Z,27.90
2023-03-24T05:47:34.972Z,28.30
2023-03-24T05:50:02.011Z,28.00
2023-03-24T05:52:29.104Z,28.30
2023-03-24T05:54:56.030Z,28.80
2023-03-24T05:57:23.047Z,29.00
2023-03-24T05:59:49.996Z,29.00
2023-03-24T06:02:16.935Z,30.00
2023-03-24T06:04:46.725Z,29.30
2023-03-24T06:07:14.437Z,46.00
2023-03-24T06:09:47.114Z,29.40
2023-03-24T06:12:16.256Z,29.80
2023-03-24T06:14:43.899Z,29.50
2023-03-24T06:17:15.024Z,29.40
2023-03-24T06:19:49.897Z,29.60
2023-03-24T06:22:18.120Z,30.20
2023-03-24T06:24:47.104Z,29.70
2023-03-24T06:27:14.328Z,30.70
2023-03-24T06:29:44.822Z,29.80
2023-03-24T06:32:11.665Z,30.20
2023-03-24T06:34:40.590Z,29.80
2023-03-24T06:37:08.090Z,30.10
2023-03-24T06:39:34.994Z,30.20
2023-03-24T06:42:02.051Z,30.20
2023-03-24T06:44:29.109Z,31.10
2023-03-24T06:46:56.183Z,31.00
2023-03-24T06:49:23.043Z,31.30
2023-03-24T06:51:49.902Z,31.60
2023-03-24T06:54:16.998Z,31.30
2023-03-24T06:56:44.550Z,49.00
2023-03-24T06:59:11.384Z,32.00
2023-03-24T07:01:38.758Z,32.30
2023-03-24T07:04:06.539Z,31.80
2023-03-24T07:06:40.169Z,31.60
2023-03-24T07:09:10.254Z,32.50
2023-03-24T07:11:37.051Z,31.90
2023-03-24T07:14:04.139Z,32.10
2023-03-24T07:16:31.243Z,32.60
2023-03-24T07:18:58.331Z,32.00
2023-03-24T07:21:25.130Z,33.40
2023-03-24T07:23:51.922Z,32.90
2023-03-24T07:26:18.729Z,32.30
2023-03-24T07:28:45.607Z,32.60
2023-03-24T07:31:12.507Z,32.50
2023-03-24T07:33:39.679Z,32.40
2023-03-24T07:36:07.678Z,32.00
2023-03-24T07:38:35.111Z,33.10
2023-03-24T07:41:02.009Z,32.80
2023-03-24T07:43:28.860Z,32.50
2023-03-24T07:45:55.867Z,32.00
2023-03-24T07:48:22.844Z,33.20
2023-03-24T07:50:49.646Z,32.50
2023-03-24T07:53:20.007Z,32.80
2023-03-24T07:55:47.581Z,33.30
2023-03-24T07:58:14.734Z,32.70
2023-03-24T08:00:42.675Z,32.50
2023-03-24T08:03:14.209Z,33.70
2023-03-24T08:05:42.477Z,50.40
2023-03-24T08:08:09.354Z,32.50
2023-03-24T08:10:36.469Z,32.80
2023-03-24T08:13:03.377Z,33.00
2023-03-24T08:15:30.174Z,32.70
2023-03-24T08:17:57.225Z,33.00
2023-03-24T08:20:27.150Z,32.80
2023-03-24T08:22:54.691Z,34.10
2023-03-24T08:25:25.787Z,33.90
2023-03-24T08:27:53.682Z,33.50
2023-03-24T08:30:26.084Z,50.90
2023-03-24T08:32:55.466Z,35.10
2023-03-24T08:35:26.276Z,33.40
2023-03-24T08:37:53.071Z,33.70
2023-03-24T08:40:24.050Z,33.00
2023-03-24T08:42:56.880Z,33.20
2023-03-24T08:45:27.609Z,33.70
2023-03-24T08:47:56.071Z,32.80
2023-03-24T08:50:25.987Z,32.90
2023-03-24T08:52:53.519Z,32.50
2023-03-24T08:55:22.651Z,32.00
2023-03-24T08:57:49.956Z,32.60
2023-03-24T09:00:20.914Z,31.70
2023-03-24T09:02:54.037Z,31.90
2023-03-24T09:05:36.697Z,32.30
2023-03-24T09:08:10.140Z,33.10
2023-03-24T09:10:36.984Z,32.30
2023-03-24T09:13:04.631Z,31.80
2023-03-24T09:15:32.243Z,32.00
2023-03-24T09:17:59.366Z,31.80
2023-03-24T09:20:26.334Z,32.00
2023-03-24T09:22:53.262Z,31.40
2023-03-24T09:25:21.635Z,32.30
2023-03-24T09:27:48.803Z,31.80
2023-03-24T09:30:17.552Z,31.80
2023-03-24T09:32:45.621Z,32.70
2023-03-24T09:35:12.898Z,32.00
2023-03-24T09:37:40.479Z,32.00
2023-03-24T09:40:08.402Z,32.60
2023-03-24T09:42:41.443Z,31.90
2023-03-24T09:45:16.919Z,31.80
2023-03-24T09:48:06.091Z,32.40
2023-03-24T09:50:43.283Z,32.50
2023-03-24T09:53:28.323Z,32.90
2023-03-24T09:55:55.723Z,32.30
2023-03-24T09:58:24.516Z,32.10
2023-03-24T10:00:52.149Z,31.80
2023-03-24T10:03:23.178Z,31.60
2023-03-24T10:06:08.258Z,31.70
2023-03-24T10:08:43.038Z,31.70
2023-03-24T10:11:28.020Z,32.90
2023-03-24T10:14:32.096Z,31.70
2023-03-24T10:17:14.723Z,31.70
2023-03-24T10:20:05.935Z,31.70
2023-03-24T10:23:01.459Z,32.50
2023-03-24T10:25:42.323Z,32.30
2023-03-24T10:28:15.489Z,31.80
2023-03-24T10:30:45.368Z,31.80
2023-03-24T10:33:13.785Z,32.20
2023-03-24T10:35:47.386Z,31.30
2023-03-24T10:38:18.823Z,31.40
2023-03-24T10:40:47.788Z,32.00
2023-03-24T10:43:17.412Z,31.80
2023-03-24T10:45:47.821Z,31.50
2023-03-24T10:48:34.512Z,30.80
2023-03-24T10:51:01.734Z,31.40
2023-03-24T10:53:28.793Z,30.70
2023-03-24T10:55:56.186Z,29.10
2023-03-24T10:58:41.140Z,29.10
2023-03-24T11:01:30.489Z,27.60
2023-03-24T11:04:05.036Z,26.30
2023-03-24T11:06:32.559Z,25.10
2023-03-24T11:09:17.688Z,23.30
2023-03-24T11:11:44.520Z,22.00
2023-03-24T11:14:28.108Z,20.60
2023-03-24T11:17:12.872Z,20.20
2023-03-24T11:19:40.065Z,19.50
2023-03-24T11:22:08.870Z,19.10
2023-03-24T11:24:37.809Z,17.80
2023-03-24T11:27:05.068Z,31.00
2023-03-24T11:29:39.967Z,16.30
2023-03-24T11:32:17.319Z,16.40
2023-03-24T11:34:50.654Z,15.00
2023-03-24T11:37:23.292Z,14.50
2023-03-24T11:40:17.843Z,14.50
2023-03-24T11:42:51.206Z,13.00
2023-03-24T11:45:28.468Z,12.40
2023-03-24T11:47:59.180Z,10.70
2023-03-24T11:50:39.022Z,10.00
2023-03-24T11:53:22.324Z,10.50
2023-03-24T11:55:54.598Z,9.40
2023-03-24T11:58:33.214Z,8.60
2023-03-24T12:01:21.389Z,8.50
2023-03-24T12:04:06.186Z,7.60
2023-03-24T12:06:58.416Z,7.00
2023-03-24T12:09:32.403Z,6.70
2023-03-24T12:12:28.394Z,6.40
2023-03-24T12:15:29.024Z,6.00
2023-03-24T12:18:34.590Z,5.00
2023-03-24T12:21:37.524Z,5.00
2023-03-24T12:24:31.951Z,3.50
2023-03-24T12:27:00.821Z,2.80
2023-03-24T12:29:35.811Z,2.50
2023-03-24T12:32:28.753Z,1.70
2023-03-24T12:35:02.708Z,14.50
2023-03-24T12:37:58.807Z,1.00
2023-03-24T12:41:06.717Z,1.00
2023-03-24T12:43:51.625Z,1.00
2023-03-24T12:46:26.380Z,1.00
2023-03-24T12:49:03.328Z,1.00
2023-03-24T12:51:46.908Z,1.00
2023-03-24T12:54:26.152Z,1.00
2023-03-24T12:56:58.714Z,1.00
2023-03-24T12:59:59.738Z,1.00
2023-03-24T13:02:43.463Z,1.00
2023-03-24T13:05:18.565Z,1.00
2023-03-24T13:07:47.623Z,1.00
2023-03-24T13:10:20.401Z,1.00
2023-03-24T13:13:15.914Z,1.00
2023-03-24T13:15:58.655Z,1.00
2023-03-24T13:18:36.160Z,1.00
2023-03-24T13:21:24.697Z,1.00
2023-03-24T13:23:59.499Z,1.00
2023-03-24T13:26:54.234Z,1.00
2023-03-24T13:29:49.235Z,1.00
2023-03-24T13:32:25.103Z,1.00
2023-03-24T13:35:20.875Z,1.00
2023-03-24T13:37:57.406Z,1.00
2023-03-24T13:40:26.423Z,1.00
2023-03-24T13:42:57.178Z,1.00
2023-03-24T13:45:42.012Z,1.00
2023-03-24T13:48:43.261Z,1.00
2023-03-24T13:51:17.984Z,1.00
2023-03-24T13:54:00.259Z,1.00
2023-03-24T13:57:03.943Z,1.00
2023-03-24T14:00:02.235Z,1.00
2023-03-24T14:02:29.149Z,1.30
2023-03-24T14:05:03.030Z,1.80
2023-03-24T14:07:44.911Z,2.20
2023-03-24T14:10:14.599Z,2.90
2023-03-24T14:12:59.495Z,2.90
2023-03-24T14:15:33.273Z,4.30
2023-03-24T14:18:26.058Z,4.40
2023-03-24T14:20:56.468Z,5.20
2023-03-24T14:23:38.718Z,5.00
2023-03-24T14:26:09.008Z,5.40
2023-03-24T14:28:40.132Z,6.20
2023-03-24T14:31:17.450Z,6.10
2023-03-24T14:33:53.730Z,6.70
2023-03-24T14:36:44.165Z,6.90
2023-03-24T14:39:28.185Z,7.40
2023-03-24T14:41:56.311Z,8.20
2023-03-24T14:44:51.121Z,7.90
2023-03-24T14:47:44.296Z,8.60
2023-03-24T14:50:18.713Z,8.00
2023-03-24T14:52:52.891Z,8.80
2023-03-24T14:55:20.667Z,8.90
2023-03-24T14:57:56.984Z,9.00
2023-03-24T15:01:07.055Z,9.60
2023-03-24T15:03:50.870Z,10.00
2023-03-24T15:06:19.706Z,9.20
2023-03-24T15:08:53.865Z,9.80
2023-03-24T15:11:24.413Z,9.70
2023-03-24T15:13:53.567Z,22.60
2023-03-24T15:16:25.170Z,9.30
2023-03-24T15:21:25.848Z,9.20
2023-03-24T15:23:53.365Z,9.40
2023-03-24T15:26:24.506Z,9.80
2023-03-24T15:29:04.596Z,9.80
2023-03-24T15:31:31.824Z,9.60
2023-03-24T15:34:08.003Z,10.40
2023-03-24T15:36:46.428Z,10.50
2023-03-24T15:39:19.056Z,10.30
2023-03-24T15:41:46.920Z,10.70
2023-03-24T15:44:19.744Z,10.70
2023-03-24T15:46:48.106Z,10.50
2023-03-24T15:49:24.152Z,10.90
2023-03-24T15:51:57.321Z,10.90
2023-03-24T15:54:26.950Z,10.70
2023-03-24T15:57:14.471Z,10.60
2023-03-24T15:59:47.490Z,11.20
2023-03-24T16:02:39.166Z,10.90
2023-03-24T16:05:17.641Z,10.90
2023-03-24T16:07:44.429Z,11.30
2023-03-24T16:10:43.348Z,11.70
2023-03-24T16:13:17.562Z,11.50
2023-03-24T16:15:58.962Z,11.40
2023-03-24T16:18:47.061Z,11.70
2023-03-24T16:21:22.403Z,12.30
2023-03-24T16:23:51.415Z,11.70
2023-03-24T16:26:29.338Z,12.20
2023-03-24T16:29:03.370Z,11.90
2023-03-24T16:31:36.366Z,12.20
2023-03-24T16:34:03.165Z,12.30
2023-03-24T16:36:30.027Z,11.80
2023-03-24T16:38:58.812Z,12.20
2023-03-24T16:41:25.934Z,13.20
2023-03-24T16:43:53.331Z,12.80
2023-03-24T16:46:25.996Z,13.30
2023-03-24T16:48:53.742Z,13.80
2023-03-24T16:51:20.641Z,13.90
2023-03-24T16:53:47.748Z,13.30
2023-03-24T16:56:16.938Z,14.40
2023-03-24T16:58:44.378Z,14.20
2023-03-24T17:01:26.617Z,15.00
2023-03-24T17:03:54.786Z,14.80
2023-03-24T17:06:22.908Z,14.80
2023-03-24T17:08:50.392Z,15.30
2023-03-24T17:11:24.223Z,15.30
2023-03-24T17:13:51.944Z,15.80
2023-03-24T17:16:18.801Z,15.90
2023-03-24T17:18:46.028Z,16.20
2023-03-24T17:21:18.742Z,17.80
2023-03-24T17:23:49.367Z,17.80
2023-03-24T17:26:17.225Z,19.60
2023-03-24T17:28:44.476Z,19.10
2023-03-24T17:31:11.328Z,20.20
2023-03-24T17:33:38.264Z,20.90
2023-03-24T17:36:05.800Z,21.90
2023-03-24T17:38:32.672Z,22.50
2023-03-24T17:41:04.353Z,23.40
2023-03-24T17:43:32.876Z,24.00
2023-03-24T17:46:01.327Z,24.60
2023-03-24T17:48:28.364Z,25.60
2023-03-24T17:50:56.976Z,25.60
2023-03-24T17:53:27.980Z,26.50
2023-03-24T17:56:01.743Z,27.10
2023-03-24T17:58:29.580Z,28.00
2023-03-24T18:01:08.239Z,27.90
2023-03-24T18:03:38.075Z,28.70
2023-03-24T18:06:10.755Z,28.70
2023-03-24T18:08:38.668Z,29.70
2023-03-24T18:11:11.401Z,30.00
2023-03-24T18:13:38.723Z,30.60
2023-03-24T18:16:20.551Z,31.60
2023-03-24T18:18:50.035Z,32.90
2023-03-24T18:21:18.614Z,32.90
2023-03-24T18:23:47.049Z,34.00
2023-03-24T18:26:15.988Z,33.70
2023-03-24T18:28:45.675Z,34.00
2023-03-24T18:31:15.838Z,35.60
2023-03-24T18:33:46.261Z,35.50
2023-03-24T18:36:21.443Z,35.50
2023-03-24T18:38:49.333Z,36.70
2023-03-24T18:41:18.692Z,36.80
2023-03-24T18:43:48.259Z,38.10
2023-03-24T18:46:16.484Z,38.10
2023-03-24T18:48:44.177Z,38.40
2023-03-24T18:51:11.872Z,39.10
2023-03-24T18:53:39.313Z,39.90
2023-03-24T18:56:07.937Z,40.40
2023-03-24T18:58:38.348Z,40.60
2023-03-24T19:01:11.355Z,41.60
2023-03-24T19:03:41.802Z,41.70
2023-03-24T19:06:13.942Z,42.30
2023-03-24T19:08:47.377Z,43.90
2023-03-24T19:11:16.263Z,42.50
2023-03-24T19:13:50.032Z,44.00
2023-03-24T19:16:19.235Z,43.60
2023-03-24T19:18:48.705Z,44.40
2023-03-24T19:21:17.383Z,44.80
2023-03-24T19:23:47.047Z,44.90
2023-03-24T19:26:16.584Z,45.70
2023-03-24T19:28:44.212Z,45.60
2023-03-24T19:31:14.638Z,46.20
2023-03-24T19:33:41.584Z,48.20
2023-03-24T19:36:09.121Z,47.80
2023-03-24T19:38:37.232Z,47.40
2023-03-24T19:41:09.945Z,48.70
2023-03-24T19:43:37.206Z,49.70
2023-03-24T19:46:05.053Z,48.70
2023-03-24T19:48:33.732Z,49.50
2023-03-24T19:51:00.600Z,50.50
2023-03-24T19:53:27.564Z,50.10
2023-03-24T19:55:59.537Z,50.10
2023-03-24T19:58:26.396Z,51.90
2023-03-24T20:00:53.417Z,51.50
2023-03-24T20:03:20.537Z,51.50
2023-03-24T20:05:48.784Z,53.00
2023-03-24T20:08:16.137Z,53.60
2023-03-24T20:10:42.959Z,53.80
2023-03-24T20:13:10.089Z,54.10
2023-03-24T20:15:36.924Z,76.40
2023-03-24T20:18:04.076Z,56.20
2023-03-24T20:20:31.718Z,56.50
2023-03-24T20:22:58.492Z,57.20
2023-03-24T20:25:25.459Z,57.30
2023-03-24T20:27:52.384Z,58.10
2023-03-24T20:30:20.692Z,58.50
2023-03-24T20:32:48.173Z,59.30
2023-03-24T20:35:15.224Z,61.00
2023-03-24T20:37:42.301Z,60.60
2023-03-24T20:40:09.968Z,61.50
2023-03-24T20:42:38.038Z,62.40
2023-03-24T20:45:06.735Z,63.30
2023-03-24T20:47:33.661Z,64.40
2023-03-24T20:50:01.300Z,64.40
2023-03-24T20:52:29.117Z,65.30
2023-03-24T20:54:56.597Z,67.00
2023-03-24T20:57:25.761Z,67.40
2023-03-24T20:59:52.697Z,67.50
2023-03-24T21:02:20.351Z,68.60
2023-03-24T21:04:47.307Z,68.80
2023-03-24T21:07:14.266Z,70.00
2023-03-24T21:09:41.121Z,71.10
2023-03-24T21:12:08.872Z,71.30
2023-03-24T21:14:35.801Z,73.00
2023-03-24T21:17:02.762Z,73.30
2023-03-24T21:19:29.708Z,73.80
2023-03-24T21:21:56.615Z,74.70
2023-03-24T21:24:24.339Z,75.60
2023-03-24T21:26:53.968Z,76.90
2023-03-24T21:29:22.654Z,76.80
2023-03-24T21:31:49.952Z,79.10
2023-03-24T21:34:17.139Z,78.70
2023-03-24T21:36:43.990Z,79.10
2023-03-24T21:39:12.099Z,80.60
2023-03-24T21:41:39.977Z,81.80
2023-03-24T21:44:09.320Z,81.10
2023-03-24T21:46:37.064Z,82.10
2023-03-24T21:49:04.986Z,83.50
2023-03-24T21:51:37.333Z,84.00
2023-03-24T21:54:06.843Z,86.20
2023-03-24T21:56:35.467Z,85.30
2023-03-24T21:59:02.499Z,86.30
2023-03-24T22:01:31.124Z,86.30
2023-03-24T22:03:59.101Z,86.40
2023-03-24T22:06:29.023Z,87.20
2023-03-24T22:08:58.656Z,88.10
2023-03-24T22:11:26.183Z,89.60
2023-03-24T22:13:53.855Z,89.20
2023-03-24T22:16:21.076Z,89.40
2023-03-24T22:18:47.954Z,90.70
2023-03-24T22:21:14.846Z,90.00
2023-03-24T22:23:42.951Z,90.40
2023-03-24T22:26:16.871Z,90.50
2023-03-24T22:28:43.993Z,90.90
2023-03-24T22:31:13.258Z,90.70
2023-03-24T22:33:40.542Z,91.60
2023-03-24T22:36:08.357Z,91.60
2023-03-24T22:38:35.664Z,91.40
2023-03-24T22:41:05.951Z,91.40
2023-03-24T22:43:33.174Z,91.90
2023-03-24T22:45:59.976Z,91.60
2023-03-24T22:48:27.155Z,91.60
2023-03-24T22:50:54.247Z,91.70
2023-03-24T22:53:21.615Z,91.60
2023-03-24T22:55:49.323Z,92.00
2023-03-24T22:58:16.882Z,91.70
2023-03-24T23:00:45.467Z,92.50
2023-03-24T23:03:12.711Z,92.10
2023-03-24T23:05:43.882Z,92.00
2023-03-24T23:08:11.609Z,92.60
2023-03-24T23:10:40.711Z,92.40
2023-03-24T23:13:07.844Z,92.50
2023-03-24T23:15:34.627Z,92.50
2023-03-24T23:18:01.498Z,92.50
2023-03-24T23:20:28.515Z,92.60
2023-03-24T23:22:56.376Z,93.20
2023-03-24T23:25:23.440Z,94.00
2023-03-24T23:27:50.518Z,94.70
2023-03-24T23:30:17.469Z,94.90
2023-03-24T23:32:46.806Z,95.00
2023-03-24T23:35:14.677Z,94.10
2023-03-24T23:37:41.592Z,93.20
2023-03-24T23:40:15.660Z,92.70
2023-03-24T23:42:46.479Z,92.60
2023-03-24T23:45:15.377Z,92.90
2023-03-24T23:47:44.509Z,92.60
2023-03-24T23:50:12.397Z,91.70
2023-03-24T23:52:43.930Z,92.10
2023-03-24T23:55:12.591Z,91.80
2023-03-24T23:57:40.495Z,91.90
